Aranspass, Texas
Current Conditions -  °F | °C
As of 5:35 PM on Saturday 22 Nov 2014 (Local Time) from KTFP Reporting Station
Haze Haze  
Wind Chill: 22°   Ceiling: 1500
Heat Index: 22°   Visibility: 5mi
Dew Point: 20°   Wind: 10mph
Humidity: 91%   Direction: 160°SSE
Pressure: 29.75"   Gusts: 22mph
Location:  27.9399°N, 97.1805°W
Report Text: KTFP 222335Z AUTO 16009G19KT 5SM BR SCT006 BKN015 22/20 A2975 RMK AO2 LTG DSNT N AND NE T02180202
Loading
Personal Weather Stations






























Interactive Weather Map New forecast layout! Learn more

10-Day Weather Forecast

Advertisements
Track Severe Weather on mobile